Flight Track Log - Related Links

Times and Time Zones

All times are in EDT time to prevent confusion due to time zone crossing. See the JZA8745 flight status page for this flight to view local times or setup timezone preferences in your user account.

Time Position Orientation Groundspeed Altitude Reporting Facility
EDT Latitude Longitude Course Direction KTS MPH feet Rate Location/Type
Sun 03:03:39 PM 47.5833 -65.7833 244° Southwest 200 230 4,700  Level Moncton Center
Sun 03:04:39 PM 47.5667 -65.8667 254° West 170 196 6,300 1,450 Climbing Moncton Center
Sun 03:05:39 PM 47.5500 -65.9167 244° Southwest 180 207 7,600 1,400 Climbing Moncton Center
Sun 03:06:39 PM 47.5333 -65.9833 250° West 180 207 9,100 1,450 Climbing Moncton Center
Sun 03:07:39 PM 47.5000 -66.0500 234° Southwest 180 207 10,500 1,350 Climbing Moncton Center
Sun 03:08:39 PM 47.4833 -66.1000 244° Southwest 180 207 11,800 1,200 Climbing Moncton Center
Sun 03:09:00 PM 47.3276 -66.5508 244° Southwest  Level FlightAware Approximate
Sun 03:09:39 PM 47.4667 -66.1833 254° West 180 207 12,900  Level Moncton Center
Sun 03:10:39 PM 47.4333 -66.2500 234° Southwest 200 230 13,900 1,000 Climbing Moncton Center
Sun 03:11:39 PM 47.4167 -66.3333 254° West 210 242 14,900 1,150 Climbing Moncton Center
Sun 03:12:39 PM 47.3833 -66.4167 239° Southwest 210 242 16,200 1,150 Climbing Moncton Center
Sun 03:13:39 PM 47.3500 -66.5000 239° Southwest 200 230 17,200 800 Climbing Moncton Center
Sun 03:14:39 PM 47.3333 -66.5667 250° West 210 242 17,800 733 Climbing Moncton Center
Sun 03:16:39 PM 47.2667 -66.7167 237° Southwest 210 242 19,400 767 Climbing Moncton Center
Sun 03:17:39 PM 47.2333 -66.7833 234° Southwest 210 242 20,100 700 Climbing Moncton Center
Sun 03:18:39 PM 47.2167 -66.8667 254° West 210 242 20,800 633 Climbing Moncton Center
Sun 03:20:39 PM 47.1667 -67.0000 241° Southwest 210 242 22,000 667 Climbing Moncton Center
Sun 03:21:39 PM 47.1333 -67.1000 244° Southwest 210 242 22,800 700 Climbing Moncton Center
Sun 03:22:39 PM 47.1000 -67.1833 240° Southwest 210 242 23,400 600 Climbing Moncton Center
Sun 03:23:39 PM 47.0833 -67.2500 250° West 210 242 24,000 200 Climbing Moncton Center
Sun 03:25:39 PM 47.0000 -67.4167 234° Southwest 240 276 24,000  Level Moncton Center
Sun 03:26:39 PM 46.9667 -67.5167 244° Southwest 250 288 24,000  Level Moncton Center
Sun 03:27:39 PM 46.9500 -67.6167 256° West 260 299 24,000  Level Moncton Center
Sun 03:28:02 PM 46.9492 -67.6297 265° West 263 303 24,000  Level Boston Center
Sun 03:29:02 PM 46.9133 -67.7242 241° Southwest 268 308 24,000  Level Boston Center
Sun 03:30:02 PM 46.8775 -67.8153 240° Southwest 268 308 24,000  Level Boston Center
Sun 03:31:02 PM 46.8417 -67.9153 242° Southwest 274 315 24,000  Level Boston Center
Sun 03:32:02 PM 46.8061 -68.0153 243° Southwest 274 315 24,000  Level Boston Center
Sun 03:33:02 PM 46.7700 -68.1089 241° Southwest 274 315 24,000  Level Boston Center
Sun 03:34:02 PM 46.7425 -68.2142 249° West 274 315 24,000  Level Boston Center
Sun 03:35:02 PM 46.7128 -68.3103 246° West 274 315 24,000  Level Boston Center
Sun 03:36:02 PM 46.6828 -68.4122 247° West 274 315 24,000  Level Boston Center
Sun 03:37:02 PM 46.6528 -68.5111 246° West 274 315 24,000  Level Boston Center
Sun 03:38:02 PM 46.6250 -68.6097 248° West 280 322 24,000  Level Boston Center
Sun 03:39:02 PM 46.5928 -68.7117 245° Southwest 275 316 24,000  Level Boston Center
Sun 03:40:02 PM 46.5628 -68.8164 247° West 280 322 24,000  Level Boston Center
Sun 03:41:02 PM 46.5325 -68.9150 246° West 280 322 24,000  Level Boston Center
Sun 03:42:02 PM 46.5019 -69.0133 246° West 280 322 24,000  Level Boston Center
Sun 03:43:02 PM 46.4758 -69.1172 250° West 280 322 24,000  Level Boston Center
Sun 03:44:02 PM 46.4539 -69.2239 253° West 280 322 24,000  Level Boston Center
Sun 03:45:02 PM 46.4358 -69.3275 256° West 275 316 24,000  Level Boston Center
Sun 03:46:02 PM 46.4158 -69.4369 255° West 275 316 24,000  Level Boston Center
Sun 03:47:02 PM 46.3978 -69.5431 256° West 275 316 24,000  Level Boston Center
Sun 03:48:02 PM 46.3733 -69.6556 253° West 275 316 24,000 -50 Level Boston Center
Sun 03:49:02 PM 46.3569 -69.7617 257° West 275 316 23,900  Descending Boston Center
Sun 03:50:02 PM 46.3325 -69.8681 252° West 275 316 24,000 50 Climbing Boston Center
Sun 03:51:02 PM 46.3139 -69.9742 256° West 280 322 24,000  Level Boston Center
Sun 03:52:02 PM 46.2931 -70.0772 254° West 280 322 24,000  Level Boston Center
Sun 03:53:02 PM 46.2744 -70.1889 256° West 280 322 24,000  Level Boston Center
Sun 03:53:39 PM 46.2500 -70.2500 240° Southwest 270 311 24,000  Level Moncton Center
Sun 03:54:39 PM 46.2333 -70.3500 256° West 270 311 24,000  Level Moncton Center
Sun 03:55:39 PM 46.2167 -70.4667 258° West 270 311 24,000  Level Moncton Center
Sun 03:56:39 PM 46.1833 -70.5667 244° Southwest 270 311 24,000  Level Moncton Center
Sun 03:57:39 PM 46.1667 -70.6833 258° West 270 311 24,000  Level Moncton Center
Sun 03:58:39 PM 46.1500 -70.7833 257° West 270 311 24,000  Level Moncton Center
Sun 03:59:39 PM 46.1167 -70.9000 248° West 270 311 24,000  Level Moncton Center
Sun 04:00:39 PM 46.1000 -70.9833 254° West 270 311 24,000  Level Moncton Center
Sun 04:01:39 PM 46.0833 -71.1000 258° West 270 311 24,000  Level Moncton Center
Sun 04:02:39 PM 46.0500 -71.2000 244° Southwest 270 311 24,000  Level Moncton Center
Sun 04:03:39 PM 46.0500 -71.3167 270° West 270 311 24,000  Level Moncton Center
Sun 04:04:39 PM 46.0167 -71.4167 244° Southwest 270 311 24,000 -450 Level Moncton Center
Sun 04:05:39 PM 46.0000 -71.5333 258° West 280 322 23,100 -1,000 Descending Moncton Center
Sun 04:06:39 PM 45.9833 -71.6333 257° West 300 345 22,000 -1,150 Descending Moncton Center
Sun 04:07:39 PM 45.9500 -71.7667 250° West 310 357 20,800 -1,100 Descending Moncton Center
Sun 04:08:39 PM 45.9333 -71.8833 258° West 310 357 19,800 -1,050 Descending Moncton Center
Sun 04:09:39 PM 45.9000 -71.9833 244° Southwest 300 345 18,700 -1,150 Descending Moncton Center
Sun 04:10:39 PM 45.8833 -72.1167 260° West 300 345 17,500 -1,150 Descending Moncton Center
Sun 04:11:39 PM 45.8500 -72.2167 244° Southwest 300 345 16,400 -1,100 Descending Moncton Center
Sun 04:12:39 PM 45.8333 -72.3333 258° West 300 345 15,300 -950 Descending Moncton Center
Sun 04:13:39 PM 45.8000 -72.4500 248° West 300 345 14,500 -1,000 Descending Moncton Center
Sun 04:14:39 PM 45.7833 -72.5667 258° West 300 345 13,300 -1,150 Descending Moncton Center
Sun 04:15:39 PM 45.7500 -72.6833 248° West 290 334 12,200 -1,050 Descending Moncton Center
Sun 04:16:39 PM 45.7333 -72.7667 254° West 280 322 11,200 -1,100 Descending Moncton Center
Sun 04:17:39 PM 45.7167 -72.8833 258° West 290 334 10,000 -1,150 Descending Moncton Center
Sun 04:18:39 PM 45.7167 -72.9833 270° West 280 322 8,900 -1,100 Descending Moncton Center
Sun 04:19:39 PM 45.7000 -73.1000 258° West 260 299 7,800 -1,100 Descending Moncton Center
Sun 04:20:39 PM 45.6833 -73.2000 257° West 240 276 6,700 -800 Descending Moncton Center
Sun 04:21:39 PM 45.6667 -73.2667 250° West 240 276 6,200 -500 Descending Moncton Center
Sun 04:23:00 PM 45.5908 -73.3565 240° Southwest  Level FlightAware Approximate
Sun 04:30:00 PM 45.4681 -73.7414 270° West  Level Estimated
Sun 04:31:00 PM 45.4681 -73.7414 55° Northeast  Level Estimated
Sun 04:32:00 PM 45.4681 -73.7414 65° Northeast  Level Estimated

Login

Don't have an account? Register now (free) for customized features, flight alerts, and more!